sensor_id;sensor_type;location;lat;lon;timestamp;noise_LAeq;noise_LA_min;noise_LA_max;noise_LA01;noise_LA95
49568;Laerm;35474;51.032;6.998;2023-04-02T00:00:35;52.96;39.81;68.02;;
49568;Laerm;35474;51.032;6.998;2023-04-02T00:03:04;56.72;38.37;71.80;;
49568;Laerm;35474;51.032;6.998;2023-04-02T00:08:17;53.43;37.70;71.79;;
49568;Laerm;35474;51.032;6.998;2023-04-02T00:10:56;58.55;38.05;71.70;;
49568;Laerm;35474;51.032;6.998;2023-04-02T00:13:31;61.09;38.67;74.90;;
49568;Laerm;35474;51.032;6.998;2023-04-02T00:15:59;59.39;38.81;75.56;;
49568;Laerm;35474;51.032;6.998;2023-04-02T00:18:26;53.24;37.52;68.81;;
49568;Laerm;35474;51.032;6.998;2023-04-02T00:21:04;56.25;38.67;68.34;;
49568;Laerm;35474;51.032;6.998;2023-04-02T00:23:36;58.43;38.81;71.05;;
49568;Laerm;35474;51.032;6.998;2023-04-02T00:26:17;56.29;37.70;69.49;;
49568;Laerm;35474;51.032;6.998;2023-04-02T00:28:46;52.42;36.91;69.18;;
49568;Laerm;35474;51.032;6.998;2023-04-02T00:31:13;55.62;39.21;70.21;;
49568;Laerm;35474;51.032;6.998;2023-04-02T00:33:42;58.79;38.37;72.14;;
49568;Laerm;35474;51.032;6.998;2023-04-02T00:36:09;47.49;38.52;63.09;;
49568;Laerm;35474;51.032;6.998;2023-04-02T00:38:36;53.49;37.52;68.13;;
49568;Laerm;35474;51.032;6.998;2023-04-02T00:41:05;59.44;38.81;73.31;;
49568;Laerm;35474;51.032;6.998;2023-04-02T00:43:36;55.45;38.37;71.09;;
49568;Laerm;35474;51.032;6.998;2023-04-02T00:46:11;56.37;38.81;73.29;;
49568;Laerm;35474;51.032;6.998;2023-04-02T00:51:52;59.98;38.52;68.74;;
49568;Laerm;35474;51.032;6.998;2023-04-02T00:54:22;61.01;39.58;73.12;;
49568;Laerm;35474;51.032;6.998;2023-04-02T00:56:52;57.33;39.08;73.87;;
49568;Laerm;35474;51.032;6.998;2023-04-02T00:59:33;62.07;43.54;72.73;;
49568;Laerm;35474;51.032;6.998;2023-04-02T01:10:36;54.12;37.52;77.22;;
49568;Laerm;35474;51.032;6.998;2023-04-02T01:13:28;56.28;38.95;68.68;;
49568;Laerm;35474;51.032;6.998;2023-04-02T01:19:25;59.45;37.53;71.76;;
49568;Laerm;35474;51.032;6.998;2023-04-02T01:22:06;57.84;38.95;71.37;;
49568;Laerm;35474;51.032;6.998;2023-04-02T01:24:35;60.37;38.81;82.77;;
49568;Laerm;35474;51.032;6.998;2023-04-02T01:27:11;58.22;38.81;72.78;;
49568;Laerm;35474;51.032;6.998;2023-04-02T01:29:46;52.93;37.12;69.27;;
49568;Laerm;35474;51.032;6.998;2023-04-02T01:32:16;54.70;39.92;71.17;;
49568;Laerm;35474;51.032;6.998;2023-04-02T01:34:46;58.77;39.58;74.72;;
49568;Laerm;35474;51.032;6.998;2023-04-02T01:37:25;45.84;38.37;64.12;;
49568;Laerm;35474;51.032;6.998;2023-04-02T01:45:20;56.17;37.70;68.96;;
49568;Laerm;35474;51.032;6.998;2023-04-02T01:47:49;57.68;39.46;72.22;;
49568;Laerm;35474;51.032;6.998;2023-04-02T01:50:37;57.13;39.78;69.79;;
49568;Laerm;35474;51.032;6.998;2023-04-02T01:53:09;51.32;37.88;73.48;;
49568;Laerm;35474;51.032;6.998;2023-04-02T01:58:05;56.98;38.81;79.27;;
49568;Laerm;35474;51.032;6.998;2023-04-02T02:00:34;53.32;38.95;69.90;;
49568;Laerm;35474;51.032;6.998;2023-04-02T02:03:04;50.27;38.37;69.40;;
49568;Laerm;35474;51.032;6.998;2023-04-02T02:05:31;55.50;38.05;74.13;;
49568;Laerm;35474;51.032;6.998;2023-04-02T02:07:58;59.66;38.05;84.96;;
49568;Laerm;35474;51.032;6.998;2023-04-02T02:10:33;57.49;39.46;69.68;;
49568;Laerm;35474;51.032;6.998;2023-04-02T02:13:01;54.00;38.67;64.87;;
49568;Laerm;35474;51.032;6.998;2023-04-02T02:15:30;58.08;39.92;73.31;;
49568;Laerm;35474;51.032;6.998;2023-04-02T02:18:04;60.69;38.67;72.49;;
49568;Laerm;35474;51.032;6.998;2023-04-02T02:20:32;61.90;40.03;82.99;;
49568;Laerm;35474;51.032;6.998;2023-04-02T02:23:00;61.00;37.12;79.50;;
49568;Laerm;35474;51.032;6.998;2023-04-02T02:25:32;57.97;38.67;77.26;;
49568;Laerm;35474;51.032;6.998;2023-04-02T02:28:09;55.45;38.81;76.26;;
49568;Laerm;35474;51.032;6.998;2023-04-02T02:30:45;57.33;39.46;77.29;;
49568;Laerm;35474;51.032;6.998;2023-04-02T02:38:49;55.32;38.67;74.95;;
49568;Laerm;35474;51.032;6.998;2023-04-02T02:41:34;59.96;39.34;73.90;;
49568;Laerm;35474;51.032;6.998;2023-04-02T02:46:51;54.71;37.88;70.24;;
49568;Laerm;35474;51.032;6.998;2023-04-02T02:49:23;51.43;39.21;66.15;;
49568;Laerm;35474;51.032;6.998;2023-04-02T02:54:29;58.07;39.21;70.71;;
49568;Laerm;35474;51.032;6.998;2023-04-02T02:57:01;56.76;38.95;68.37;;
49568;Laerm;35474;51.032;6.998;2023-04-02T02:59:31;56.42;41.14;67.74;;
49568;Laerm;35474;51.032;6.998;2023-04-02T03:01:59;49.62;39.21;67.59;;
49568;Laerm;35474;51.032;6.998;2023-04-02T03:04:27;53.08;39.46;68.19;;
49568;Laerm;35474;51.032;6.998;2023-04-02T03:06:56;53.69;39.34;68.18;;
49568;Laerm;35474;51.032;6.998;2023-04-02T03:09:52;60.94;38.67;85.39;;
49568;Laerm;35474;51.032;6.998;2023-04-02T03:12:27;54.72;39.35;70.16;;
49568;Laerm;35474;51.032;6.998;2023-04-02T03:15:20;57.10;40.03;81.21;;
49568;Laerm;35474;51.032;6.998;2023-04-02T03:20:26;66.28;39.58;90.46;;
49568;Laerm;35474;51.032;6.998;2023-04-02T03:28:28;60.78;40.53;83.15;;
49568;Laerm;35474;51.032;6.998;2023-04-02T03:31:05;54.16;39.92;75.28;;
49568;Laerm;35474;51.032;6.998;2023-04-02T03:33:41;54.89;40.62;67.58;;
49568;Laerm;35474;51.032;6.998;2023-04-02T03:36:26;57.99;40.33;69.34;;
49568;Laerm;35474;51.032;6.998;2023-04-02T03:39:05;54.24;40.23;68.66;;
49568;Laerm;35474;51.032;6.998;2023-04-02T03:41:40;58.66;39.70;70.43;;
49568;Laerm;35474;51.032;6.998;2023-04-02T03:44:19;55.75;39.92;71.25;;
49568;Laerm;35474;51.032;6.998;2023-04-02T03:46:52;56.97;39.08;79.50;;
49568;Laerm;35474;51.032;6.998;2023-04-02T03:49:30;63.83;41.22;81.42;;
49568;Laerm;35474;51.032;6.998;2023-04-02T03:54:28;53.59;41.82;66.24;;
49568;Laerm;35474;51.032;6.998;2023-04-02T03:56:57;63.80;40.98;90.59;;
49568;Laerm;35474;51.032;6.998;2023-04-02T03:59:47;56.15;40.03;66.80;;
49568;Laerm;35474;51.032;6.998;2023-04-02T04:05:23;60.78;40.53;79.86;;
49568;Laerm;35474;51.032;6.998;2023-04-02T04:07:54;55.16;40.23;79.13;;
49568;Laerm;35474;51.032;6.998;2023-04-02T04:10:26;60.11;40.33;77.91;;
49568;Laerm;35474;51.032;6.998;2023-04-02T04:12:56;54.88;40.23;65.80;;
49568;Laerm;35474;51.032;6.998;2023-04-02T04:15:59;55.64;41.06;76.35;;
49568;Laerm;35474;51.032;6.998;2023-04-02T04:18:50;57.75;39.34;69.18;;
49568;Laerm;35474;51.032;6.998;2023-04-02T04:21:21;60.20;40.43;83.86;;
49568;Laerm;35474;51.032;6.998;2023-04-02T04:24:00;53.19;41.14;76.92;;
49568;Laerm;35474;51.032;6.998;2023-04-02T04:31:51;58.97;41.06;79.04;;
49568;Laerm;35474;51.032;6.998;2023-04-02T04:34:25;76.59;42.59;98.15;;
49568;Laerm;35474;51.032;6.998;2023-04-02T04:36:58;54.84;40.62;80.75;;
49568;Laerm;35474;51.032;6.998;2023-04-02T04:39:49;49.55;40.13;70.98;;
49568;Laerm;35474;51.032;6.998;2023-04-02T04:42:24;65.55;40.89;85.01;;
49568;Laerm;35474;51.032;6.998;2023-04-02T04:44:59;54.97;40.43;73.14;;
49568;Laerm;35474;51.032;6.998;2023-04-02T04:47:31;54.51;40.53;73.61;;
49568;Laerm;35474;51.032;6.998;2023-04-02T04:50:11;57.97;40.13;77.19;;
49568;Laerm;35474;51.032;6.998;2023-04-02T04:52:40;58.84;40.13;75.87;;
49568;Laerm;35474;51.032;6.998;2023-04-02T04:57:50;56.49;40.13;76.97;;
49568;Laerm;35474;51.032;6.998;2023-04-02T05:00:46;58.29;39.21;78.04;;
49568;Laerm;35474;51.032;6.998;2023-04-02T05:05:50;56.28;39.46;69.73;;
49568;Laerm;35474;51.032;6.998;2023-04-02T05:08:25;56.32;39.92;67.61;;
49568;Laerm;35474;51.032;6.998;2023-04-02T05:11:09;43.99;39.21;54.70;;
49568;Laerm;35474;51.032;6.998;2023-04-02T05:13:44;47.55;39.92;70.74;;
49568;Laerm;35474;51.032;6.998;2023-04-02T05:16:19;55.80;40.03;70.36;;
49568;Laerm;35474;51.032;6.998;2023-04-02T05:18:51;45.63;40.13;59.41;;
49568;Laerm;35474;51.032;6.998;2023-04-02T05:21:36;52.00;40.23;66.69;;
49568;Laerm;35474;51.032;6.998;2023-04-02T05:24:39;56.33;40.88;71.58;;
49568;Laerm;35474;51.032;6.998;2023-04-02T05:27:25;52.76;40.71;69.50;;
49568;Laerm;35474;51.032;6.998;2023-04-02T05:30:08;61.22;40.98;75.58;;
49568;Laerm;35474;51.032;6.998;2023-04-02T05:32:43;66.46;40.43;90.58;;
49568;Laerm;35474;51.032;6.998;2023-04-02T05:35:16;53.12;40.13;74.47;;
49568;Laerm;35474;51.032;6.998;2023-04-02T05:37:44;61.29;41.38;73.75;;
49568;Laerm;35474;51.032;6.998;2023-04-02T05:40:22;60.02;40.89;77.50;;
49568;Laerm;35474;51.032;6.998;2023-04-02T05:42:53;59.35;39.46;78.97;;
49568;Laerm;35474;51.032;6.998;2023-04-02T05:47:55;54.61;41.89;67.51;;
49568;Laerm;35474;51.032;6.998;2023-04-02T05:50:29;56.16;41.30;69.58;;
49568;Laerm;35474;51.032;6.998;2023-04-02T05:53:13;58.31;40.98;70.53;;
49568;Laerm;35474;51.032;6.998;2023-04-02T05:58:21;56.04;41.06;67.44;;
49568;Laerm;35474;51.032;6.998;2023-04-02T06:00:57;56.95;40.71;69.36;;
49568;Laerm;35474;51.032;6.998;2023-04-02T06:06:03;57.34;40.33;81.43;;
49568;Laerm;35474;51.032;6.998;2023-04-02T06:08:38;61.05;40.89;83.44;;
49568;Laerm;35474;51.032;6.998;2023-04-02T06:11:10;56.98;40.98;73.94;;
49568;Laerm;35474;51.032;6.998;2023-04-02T06:13:37;56.92;40.33;69.50;;
49568;Laerm;35474;51.032;6.998;2023-04-02T06:16:05;57.54;40.71;72.76;;
49568;Laerm;35474;51.032;6.998;2023-04-02T06:18:33;56.18;41.06;67.04;;
49568;Laerm;35474;51.032;6.998;2023-04-02T06:21:02;61.80;42.53;70.64;;
49568;Laerm;35474;51.032;6.998;2023-04-02T06:23:37;62.73;43.19;81.62;;
49568;Laerm;35474;51.032;6.998;2023-04-02T06:28:52;55.61;40.71;67.06;;
49568;Laerm;35474;51.032;6.998;2023-04-02T06:32:34;61.10;45.72;76.14;;
49568;Laerm;35474;51.032;6.998;2023-04-02T06:35:01;59.86;43.54;71.70;;
49568;Laerm;35474;51.032;6.998;2023-04-02T06:37:33;58.78;40.89;77.17;;
49568;Laerm;35474;51.032;6.998;2023-04-02T06:40:02;58.70;41.46;69.34;;
49568;Laerm;35474;51.032;6.998;2023-04-02T06:42:33;56.01;40.80;72.81;;
49568;Laerm;35474;51.032;6.998;2023-04-02T06:45:01;61.45;42.88;71.63;;
49568;Laerm;35474;51.032;6.998;2023-04-02T06:47:32;59.67;42.71;71.01;;
49568;Laerm;35474;51.032;6.998;2023-04-02T06:50:08;60.26;41.89;78.63;;
49568;Laerm;35474;51.032;6.998;2023-04-02T06:52:47;61.86;41.96;76.71;;
49568;Laerm;35474;51.032;6.998;2023-04-02T06:56:16;61.66;41.14;72.52;;
49568;Laerm;35474;51.032;6.998;2023-04-02T06:58:20;57.82;42.98;68.94;;
49568;Laerm;35474;51.032;6.998;2023-04-02T07:00:48;55.36;41.68;66.52;;
49568;Laerm;35474;51.032;6.998;2023-04-02T07:03:36;58.91;42.16;71.43;;
49568;Laerm;35474;51.032;6.998;2023-04-02T07:06:02;61.61;42.47;86.53;;
49568;Laerm;35474;51.032;6.998;2023-04-02T07:08:29;58.92;43.34;70.40;;
49568;Laerm;35474;51.032;6.998;2023-04-02T07:10:55;57.98;41.82;68.38;;
49568;Laerm;35474;51.032;6.998;2023-04-02T07:13:23;59.85;42.35;71.92;;
49568;Laerm;35474;51.032;6.998;2023-04-02T07:15:51;54.50;41.46;67.03;;
49568;Laerm;35474;51.032;6.998;2023-04-02T07:18:26;63.28;40.89;84.35;;
49568;Laerm;35474;51.032;6.998;2023-04-02T07:20:55;56.08;42.59;76.17;;
49568;Laerm;35474;51.032;6.998;2023-04-02T07:23:22;60.32;41.46;70.02;;
49568;Laerm;35474;51.032;6.998;2023-04-02T07:25:53;58.25;43.14;68.15;;
49568;Laerm;35474;51.032;6.998;2023-04-02T07:28:20;60.94;42.59;71.07;;
49568;Laerm;35474;51.032;6.998;2023-04-02T07:30:48;63.18;47.12;81.75;;
49568;Laerm;35474;51.032;6.998;2023-04-02T07:33:17;61.93;45.86;71.98;;
49568;Laerm;35474;51.032;6.998;2023-04-02T07:35:45;61.31;42.82;76.15;;
49568;Laerm;35474;51.032;6.998;2023-04-02T07:38:11;62.03;47.30;69.83;;
49568;Laerm;35474;51.032;6.998;2023-04-02T07:40:38;67.26;43.49;92.00;;
49568;Laerm;35474;51.032;6.998;2023-04-02T07:43:05;60.77;43.09;71.34;;
49568;Laerm;35474;51.032;6.998;2023-04-02T07:45:31;61.31;43.19;70.69;;
49568;Laerm;35474;51.032;6.998;2023-04-02T07:48:10;63.83;45.33;75.12;;
49568;Laerm;35474;51.032;6.998;2023-04-02T07:50:37;63.58;45.99;71.60;;
49568;Laerm;35474;51.032;6.998;2023-04-02T07:53:04;62.50;46.64;71.93;;
49568;Laerm;35474;51.032;6.998;2023-04-02T07:55:32;64.25;48.13;77.28;;
49568;Laerm;35474;51.032;6.998;2023-04-02T07:57:59;59.79;43.99;78.42;;
49568;Laerm;35474;51.032;6.998;2023-04-02T08:00:26;62.43;44.03;82.22;;
49568;Laerm;35474;51.032;6.998;2023-04-02T08:02:53;65.26;47.38;85.51;;
49568;Laerm;35474;51.032;6.998;2023-04-02T08:05:20;60.06;43.04;70.74;;
49568;Laerm;35474;51.032;6.998;2023-04-02T08:07:55;59.53;44.90;76.47;;
49568;Laerm;35474;51.032;6.998;2023-04-02T08:10:23;63.19;47.91;72.26;;
49568;Laerm;35474;51.032;6.998;2023-04-02T08:12:50;66.36;44.23;87.80;;
49568;Laerm;35474;51.032;6.998;2023-04-02T08:15:17;63.60;44.43;80.09;;
49568;Laerm;35474;51.032;6.998;2023-04-02T08:17:44;62.13;44.87;81.14;;
49568;Laerm;35474;51.032;6.998;2023-04-02T08:20:16;68.02;44.62;89.16;;
49568;Laerm;35474;51.032;6.998;2023-04-02T08:22:44;63.07;44.15;77.54;;
49568;Laerm;35474;51.032;6.998;2023-04-02T08:25:11;60.04;45.17;67.68;;
49568;Laerm;35474;51.032;6.998;2023-04-02T08:27:37;61.58;43.77;71.45;;
49568;Laerm;35474;51.032;6.998;2023-04-02T08:30:05;61.23;45.45;71.77;;
49568;Laerm;35474;51.032;6.998;2023-04-02T08:32:34;64.06;44.03;78.11;;
49568;Laerm;35474;51.032;6.998;2023-04-02T08:35:00;65.64;43.89;85.85;;
49568;Laerm;35474;51.032;6.998;2023-04-02T08:37:28;62.80;43.54;79.57;;
49568;Laerm;35474;51.032;6.998;2023-04-02T08:39:54;64.51;44.43;81.52;;
49568;Laerm;35474;51.032;6.998;2023-04-02T08:42:28;62.46;46.71;81.22;;
49568;Laerm;35474;51.032;6.998;2023-04-02T08:45:20;63.51;45.72;74.47;;
49568;Laerm;35474;51.032;6.998;2023-04-02T08:47:52;65.38;49.66;84.54;;
49568;Laerm;35474;51.032;6.998;2023-04-02T08:50:34;68.04;50.61;91.56;;
49568;Laerm;35474;51.032;6.998;2023-04-02T08:53:05;64.21;47.93;73.06;;
49568;Laerm;35474;51.032;6.998;2023-04-02T08:55:44;62.61;45.86;74.59;;
49568;Laerm;35474;51.032;6.998;2023-04-02T09:00:54;67.96;46.69;90.75;;
49568;Laerm;35474;51.032;6.998;2023-04-02T09:03:30;63.80;49.23;72.38;;
49568;Laerm;35474;51.032;6.998;2023-04-02T09:06:00;63.62;46.82;72.20;;
49568;Laerm;35474;51.032;6.998;2023-04-02T09:08:29;65.37;45.66;85.63;;
49568;Laerm;35474;51.032;6.998;2023-04-02T09:13:29;63.66;44.47;77.24;;
49568;Laerm;35474;51.032;6.998;2023-04-02T09:16:08;67.08;44.97;91.43;;
49568;Laerm;35474;51.032;6.998;2023-04-02T09:18:37;66.42;43.29;91.59;;
49568;Laerm;35474;51.032;6.998;2023-04-02T09:21:30;66.57;45.60;85.96;;
49568;Laerm;35474;51.032;6.998;2023-04-02T09:23:59;64.60;45.73;79.49;;
49568;Laerm;35474;51.032;6.998;2023-04-02T09:26:30;63.07;43.94;83.42;;
49568;Laerm;35474;51.032;6.998;2023-04-02T09:34:39;62.54;46.93;74.81;;
49568;Laerm;35474;51.032;6.998;2023-04-02T09:37:26;63.88;47.18;75.34;;
49568;Laerm;35474;51.032;6.998;2023-04-02T09:40:12;64.81;46.23;74.12;;
49568;Laerm;35474;51.032;6.998;2023-04-02T09:42:41;63.81;49.59;78.19;;
49568;Laerm;35474;51.032;6.998;2023-04-02T09:45:21;63.54;45.07;72.37;;
49568;Laerm;35474;51.032;6.998;2023-04-02T09:47:56;62.19;44.54;71.94;;
49568;Laerm;35474;51.032;6.998;2023-04-02T09:50:26;63.71;47.08;73.94;;
49568;Laerm;35474;51.032;6.998;2023-04-02T09:52:53;64.30;46.52;75.98;;
49568;Laerm;35474;51.032;6.998;2023-04-02T09:55:26;63.35;48.66;73.51;;
49568;Laerm;35474;51.032;6.998;2023-04-02T09:58:14;62.16;45.57;75.47;;
49568;Laerm;35474;51.032;6.998;2023-04-02T10:00:59;65.48;46.50;85.97;;
49568;Laerm;35474;51.032;6.998;2023-04-02T10:03:28;61.64;44.47;71.62;;
49568;Laerm;35474;51.032;6.998;2023-04-02T10:06:14;63.81;43.58;74.39;;
49568;Laerm;35474;51.032;6.998;2023-04-02T10:08:43;64.70;50.75;78.27;;
49568;Laerm;35474;51.032;6.998;2023-04-02T10:13:52;65.70;44.65;79.16;;
49568;Laerm;35474;51.032;6.998;2023-04-02T10:16:31;65.28;44.94;77.75;;
49568;Laerm;35474;51.032;6.998;2023-04-02T10:19:08;64.06;48.42;73.36;;
49568;Laerm;35474;51.032;6.998;2023-04-02T10:21:39;62.17;42.98;75.82;;
49568;Laerm;35474;51.032;6.998;2023-04-02T10:24:12;61.42;43.90;71.07;;
49568;Laerm;35474;51.032;6.998;2023-04-02T10:32:22;62.05;45.11;75.63;;
49568;Laerm;35474;51.032;6.998;2023-04-02T10:38:18;64.76;47.22;73.27;;
49568;Laerm;35474;51.032;6.998;2023-04-02T10:41:02;64.02;50.23;73.17;;
49568;Laerm;35474;51.032;6.998;2023-04-02T10:46:41;66.88;45.77;91.02;;
49568;Laerm;35474;51.032;6.998;2023-04-02T10:52:19;61.62;44.94;71.56;;
49568;Laerm;35474;51.032;6.998;2023-04-02T10:54:49;64.90;49.87;71.41;;
49568;Laerm;35474;51.032;6.998;2023-04-02T10:57:38;65.44;46.18;73.97;;
49568;Laerm;35474;51.032;6.998;2023-04-02T11:02:48;64.08;50.76;72.71;;
49568;Laerm;35474;51.032;6.998;2023-04-02T11:05:48;63.61;44.73;72.26;;
49568;Laerm;35474;51.032;6.998;2023-04-02T11:08:40;62.81;45.48;71.30;;
49568;Laerm;35474;51.032;6.998;2023-04-02T11:11:16;63.59;44.54;74.31;;
49568;Laerm;35474;51.032;6.998;2023-04-02T11:16:49;67.75;48.02;86.49;;
49568;Laerm;35474;51.032;6.998;2023-04-02T11:21:51;70.97;51.42;93.98;;
49568;Laerm;35474;51.032;6.998;2023-04-02T11:29:31;61.90;43.77;73.10;;
49568;Laerm;35474;51.032;6.998;2023-04-02T11:37:09;64.94;47.84;74.46;;
49568;Laerm;35474;51.032;6.998;2023-04-02T11:39:46;65.26;45.42;78.07;;
49568;Laerm;35474;51.032;6.998;2023-04-02T11:42:31;65.05;45.14;72.76;;
49568;Laerm;35474;51.032;6.998;2023-04-02T11:50:39;67.41;55.81;85.71;;
49568;Laerm;35474;51.032;6.998;2023-04-02T12:01:55;65.15;42.16;75.29;;
49568;Laerm;35474;51.032;6.998;2023-04-02T12:09:23;64.43;45.51;74.80;;
49568;Laerm;35474;51.032;6.998;2023-04-02T12:12:01;62.63;45.17;75.70;;
49568;Laerm;35474;51.032;6.998;2023-04-02T12:19:58;62.78;48.77;72.32;;
49568;Laerm;35474;51.032;6.998;2023-04-02T12:22:30;63.93;46.02;74.04;;
49568;Laerm;35474;51.032;6.998;2023-04-02T12:25:05;63.71;43.94;75.91;;
49568;Laerm;35474;51.032;6.998;2023-04-02T12:27:46;64.05;48.29;73.70;;
49568;Laerm;35474;51.032;6.998;2023-04-02T12:32:43;63.44;44.23;71.47;;
49568;Laerm;35474;51.032;6.998;2023-04-02T12:35:32;65.62;44.35;79.32;;
49568;Laerm;35474;51.032;6.998;2023-04-02T12:37:59;62.71;49.04;71.84;;
49568;Laerm;35474;51.032;6.998;2023-04-02T12:40:26;64.35;49.34;74.04;;
49568;Laerm;35474;51.032;6.998;2023-04-02T12:42:53;65.86;44.97;81.70;;
49568;Laerm;35474;51.032;6.998;2023-04-02T12:45:27;64.32;43.44;79.61;;
49568;Laerm;35474;51.032;6.998;2023-04-02T12:48:05;65.50;48.10;79.64;;
49568;Laerm;35474;51.032;6.998;2023-04-02T12:50:38;70.53;50.56;87.91;;
49568;Laerm;35474;51.032;6.998;2023-04-02T12:53:20;63.82;50.62;74.24;;
49568;Laerm;35474;51.032;6.998;2023-04-02T12:55:50;59.57;43.04;78.87;;
49568;Laerm;35474;51.032;6.998;2023-04-02T12:58:37;66.25;42.29;83.68;;
49568;Laerm;35474;51.032;6.998;2023-04-02T13:01:29;66.03;47.72;84.99;;
49568;Laerm;35474;51.032;6.998;2023-04-02T13:04:04;61.63;45.14;74.40;;
49568;Laerm;35474;51.032;6.998;2023-04-02T13:06:33;63.71;47.84;76.90;;
49568;Laerm;35474;51.032;6.998;2023-04-02T13:09:03;64.75;50.83;74.30;;
49568;Laerm;35474;51.032;6.998;2023-04-02T13:11:37;64.03;42.16;78.63;;
49568;Laerm;35474;51.032;6.998;2023-04-02T13:14:06;64.03;43.81;72.64;;
49568;Laerm;35474;51.032;6.998;2023-04-02T13:16:37;63.28;46.45;71.48;;
49568;Laerm;35474;51.032;6.998;2023-04-02T13:19:35;63.76;50.53;84.09;;
49568;Laerm;35474;51.032;6.998;2023-04-02T13:22:30;64.29;46.48;77.74;;
49568;Laerm;35474;51.032;6.998;2023-04-02T13:24:57;63.24;42.35;77.44;;
49568;Laerm;35474;51.032;6.998;2023-04-02T13:27:23;64.38;43.14;75.26;;
49568;Laerm;35474;51.032;6.998;2023-04-02T13:29:50;63.85;46.23;75.67;;
49568;Laerm;35474;51.032;6.998;2023-04-02T13:32:16;64.44;50.70;75.80;;
49568;Laerm;35474;51.032;6.998;2023-04-02T13:34:43;66.46;49.38;86.97;;
49568;Laerm;35474;51.032;6.998;2023-04-02T13:37:12;63.36;44.54;81.55;;
49568;Laerm;35474;51.032;6.998;2023-04-02T13:39:39;64.73;51.70;72.48;;
49568;Laerm;35474;51.032;6.998;2023-04-02T13:42:06;62.37;42.71;71.81;;
49568;Laerm;35474;51.032;6.998;2023-04-02T13:44:35;65.33;46.97;86.16;;
49568;Laerm;35474;51.032;6.998;2023-04-02T13:47:05;63.88;43.29;81.75;;
49568;Laerm;35474;51.032;6.998;2023-04-02T13:49:31;62.35;47.14;70.89;;
49568;Laerm;35474;51.032;6.998;2023-04-02T13:51:59;61.31;44.94;70.10;;
49568;Laerm;35474;51.032;6.998;2023-04-02T13:57:03;62.65;43.04;74.31;;
49568;Laerm;35474;51.032;6.998;2023-04-02T13:59:32;64.86;45.91;84.91;;
49568;Laerm;35474;51.032;6.998;2023-04-02T14:02:03;64.67;50.92;79.81;;
49568;Laerm;35474;51.032;6.998;2023-04-02T14:04:34;62.17;45.07;71.23;;
49568;Laerm;35474;51.032;6.998;2023-04-02T14:07:38;62.47;45.01;73.12;;
49568;Laerm;35474;51.032;6.998;2023-04-02T14:10:29;76.21;52.59;96.73;;
49568;Laerm;35474;51.032;6.998;2023-04-02T14:13:12;63.76;45.39;76.25;;
49568;Laerm;35474;51.032;6.998;2023-04-02T14:16:05;68.94;45.66;92.24;;
49568;Laerm;35474;51.032;6.998;2023-04-02T14:18:54;65.66;49.57;74.30;;
49568;Laerm;35474;51.032;6.998;2023-04-02T14:21:55;65.69;46.95;86.37;;
49568;Laerm;35474;51.032;6.998;2023-04-02T14:25:12;69.21;46.10;89.05;;
49568;Laerm;35474;51.032;6.998;2023-04-02T14:28:17;64.73;44.58;76.14;;
49568;Laerm;35474;51.032;6.998;2023-04-02T14:30:38;65.38;48.32;85.64;;
49568;Laerm;35474;51.032;6.998;2023-04-02T14:36:17;62.78;44.58;79.11;;
49568;Laerm;35474;51.032;6.998;2023-04-02T14:41:40;64.40;48.15;72.02;;
49568;Laerm;35474;51.032;6.998;2023-04-02T14:44:12;69.77;46.40;92.30;;
49568;Laerm;35474;51.032;6.998;2023-04-02T14:46:39;74.87;53.58;96.19;;
49568;Laerm;35474;51.032;6.998;2023-04-02T14:54:26;77.01;52.60;97.42;;
49568;Laerm;35474;51.032;6.998;2023-04-02T15:00:06;64.73;45.01;79.61;;
49568;Laerm;35474;51.032;6.998;2023-04-02T15:02:49;63.64;43.90;76.06;;
49568;Laerm;35474;51.032;6.998;2023-04-02T15:05:23;67.99;47.95;88.62;;
49568;Laerm;35474;51.032;6.998;2023-04-02T15:08:01;64.40;46.64;80.72;;
49568;Laerm;35474;51.032;6.998;2023-04-02T15:10:54;65.75;45.45;86.02;;
49568;Laerm;35474;51.032;6.998;2023-04-02T15:14:01;67.69;47.18;86.86;;
49568;Laerm;35474;51.032;6.998;2023-04-02T15:16:31;65.30;49.14;81.53;;
49568;Laerm;35474;51.032;6.998;2023-04-02T15:18:59;68.04;52.74;85.93;;
49568;Laerm;35474;51.032;6.998;2023-04-02T15:30:13;63.41;43.54;80.48;;
49568;Laerm;35474;51.032;6.998;2023-04-02T15:32:42;65.18;46.02;80.31;;
49568;Laerm;35474;51.032;6.998;2023-04-02T15:35:59;64.43;49.44;77.80;;
49568;Laerm;35474;51.032;6.998;2023-04-02T15:43:30;63.53;43.72;79.61;;
49568;Laerm;35474;51.032;6.998;2023-04-02T15:54:46;66.66;46.78;82.16;;
49568;Laerm;35474;51.032;6.998;2023-04-02T16:03:02;74.56;46.66;97.86;;
49568;Laerm;35474;51.032;6.998;2023-04-02T16:05:47;69.56;45.07;88.49;;
49568;Laerm;35474;51.032;6.998;2023-04-02T16:10:52;67.44;44.73;84.41;;
49568;Laerm;35474;51.032;6.998;2023-04-02T16:13:32;64.38;45.57;76.54;;
49568;Laerm;35474;51.032;6.998;2023-04-02T16:16:10;65.77;47.12;85.57;;
49568;Laerm;35474;51.032;6.998;2023-04-02T16:21:59;63.32;48.15;79.27;;
49568;Laerm;35474;51.032;6.998;2023-04-02T16:24:27;63.93;44.38;75.25;;
49568;Laerm;35474;51.032;6.998;2023-04-02T16:27:11;67.53;44.51;84.23;;
49568;Laerm;35474;51.032;6.998;2023-04-02T16:32:49;65.97;49.27;85.74;;
49568;Laerm;35474;51.032;6.998;2023-04-02T16:35:44;68.29;43.34;88.37;;
49568;Laerm;35474;51.032;6.998;2023-04-02T16:38:49;65.52;46.77;82.15;;
49568;Laerm;35474;51.032;6.998;2023-04-02T16:44:42;64.20;50.54;78.28;;
49568;Laerm;35474;51.032;6.998;2023-04-02T16:47:42;64.29;47.04;81.62;;
49568;Laerm;35474;51.032;6.998;2023-04-02T16:52:55;66.03;43.94;87.07;;
49568;Laerm;35474;51.032;6.998;2023-04-02T17:01:05;65.08;42.35;76.86;;
49568;Laerm;35474;51.032;6.998;2023-04-02T17:06:47;64.36;44.43;76.09;;
49568;Laerm;35474;51.032;6.998;2023-04-02T17:09:27;64.55;45.94;83.74;;
49568;Laerm;35474;51.032;6.998;2023-04-02T17:12:08;64.00;44.87;78.63;;
49568;Laerm;35474;51.032;6.998;2023-04-02T17:15:02;66.96;43.29;87.48;;
49568;Laerm;35474;51.032;6.998;2023-04-02T17:17:36;63.84;43.29;78.43;;
49568;Laerm;35474;51.032;6.998;2023-04-02T17:20:19;63.60;44.73;78.33;;
49568;Laerm;35474;51.032;6.998;2023-04-02T17:22:47;64.74;50.70;72.26;;
49568;Laerm;35474;51.032;6.998;2023-04-02T17:25:27;66.22;52.35;86.11;;
49568;Laerm;35474;51.032;6.998;2023-04-02T17:27:56;64.78;45.39;72.92;;
49568;Laerm;35474;51.032;6.998;2023-04-02T17:30:34;64.60;48.02;72.48;;
49568;Laerm;35474;51.032;6.998;2023-04-02T17:33:21;64.83;44.43;75.67;;
49568;Laerm;35474;51.032;6.998;2023-04-02T17:36:25;63.54;44.86;75.07;;
49568;Laerm;35474;51.032;6.998;2023-04-02T17:39:10;64.20;45.45;74.00;;
49568;Laerm;35474;51.032;6.998;2023-04-02T17:42:05;63.29;43.99;71.66;;
49568;Laerm;35474;51.032;6.998;2023-04-02T17:47:19;65.14;51.91;76.01;;
49568;Laerm;35474;51.032;6.998;2023-04-02T17:52:55;63.34;44.35;72.67;;
49568;Laerm;35474;51.032;6.998;2023-04-02T18:06:20;60.93;43.09;70.43;;
49568;Laerm;35474;51.032;6.998;2023-04-02T18:11:59;63.98;43.39;85.05;;
49568;Laerm;35474;51.032;6.998;2023-04-02T18:17:21;64.43;43.14;84.31;;
49568;Laerm;35474;51.032;6.998;2023-04-02T18:20:16;63.29;44.83;82.80;;
49568;Laerm;35474;51.032;6.998;2023-04-02T18:25:54;60.41;42.98;76.29;;
49568;Laerm;35474;51.032;6.998;2023-04-02T18:28:57;60.24;43.99;76.20;;